Time;durP1;ratioP1;P1;durP2;ratioP2;P2;SDS_P1;SDS_P2;PMS_P1;PMS_P2;Temp;Humidity;BMP_temperature;BMP_pressure;BME280_temperature;BME280_humidity;BME280_pressure;Samples;Min_cycle;Max_cycle;Signal;HPM_P1;HPM_P2
2021/11/24 00:00:45;;;;;;;2.28;1.17;;;;;;;;;;4989161;28;20022;-73
2021/11/24 00:03:11;;;;;;;2.30;1.45;;;;;;;;;;4970955;28;20114;-72
2021/11/24 00:05:37;;;;;;;1.55;0.47;;;;;;;;;;4989072;28;20500;-73
2021/11/24 00:08:03;;;;;;;0.90;0.90;;;;;;;;;;4989357;28;20080;-73
2021/11/24 00:10:31;;;;;;;0.65;0.65;;;;;;;;;;4986630;28;20097;-72
2021/11/24 00:12:57;;;;;;;1.38;1.27;;;;;;;;;;4989160;28;20632;-73
2021/11/24 00:15:23;;;;;;;1.80;1.70;;;;;;;;;;4989249;28;20053;-72
2021/11/24 00:17:49;;;;;;;1.17;0.95;;;;;;;;;;4977123;28;20034;-73
2021/11/24 00:20:15;;;;;;;0.90;0.90;;;;;;;;;;4976462;28;20030;-72
2021/11/24 00:22:41;;;;;;;0.45;0.45;;;;;;;;;;4988851;28;20077;-73
2021/11/24 00:25:08;;;;;;;1.55;1.17;;;;;;;;;;4989343;28;20030;-73
2021/11/24 00:27:34;;;;;;;0.30;0.30;;;;;;;;;;4980606;28;20022;-73
2021/11/24 00:30:00;;;;;;;0.88;0.75;;;;;;;;;;4989123;28;20037;-73
2021/11/24 00:32:26;;;;;;;0.22;0.22;;;;;;;;;;4989131;28;20026;-73
2021/11/24 00:34:52;;;;;;;0.43;0.43;;;;;;;;;;4989221;28;20037;-72
2021/11/24 00:37:18;;;;;;;1.20;0.50;;;;;;;;;;4976219;28;20465;-73
2021/11/24 00:39:44;;;;;;;0.73;0.40;;;;;;;;;;4987093;28;20106;-73
2021/11/24 00:42:09;;;;;;;0.80;0.80;;;;;;;;;;4987281;28;20026;-73
2021/11/24 00:44:35;;;;;;;1.60;1.50;;;;;;;;;;4993333;28;20504;-73
2021/11/24 00:47:01;;;;;;;3.00;1.10;;;;;;;;;;4992837;28;20528;-73
2021/11/24 00:49:27;;;;;;;0.73;0.73;;;;;;;;;;4989298;28;20019;-72
2021/11/24 00:51:53;;;;;;;0.10;0.10;;;;;;;;;;4987315;28;20740;-73
2021/11/24 00:54:19;;;;;;;0.65;0.40;;;;;;;;;;4979960;28;20027;-73
2021/11/24 00:56:45;;;;;;;0.95;0.95;;;;;;;;;;4977903;28;20027;-73
2021/11/24 00:59:11;;;;;;;11.90;1.42;;;;;;;;;;4987608;28;20057;-73
2021/11/24 01:01:37;;;;;;;1.15;0.77;;;;;;;;;;4983624;28;20066;-73
2021/11/24 01:04:03;;;;;;;0.80;0.77;;;;;;;;;;4986182;28;20428;-73
2021/11/24 01:06:29;;;;;;;0.55;0.55;;;;;;;;;;4973213;28;20018;-73
2021/11/24 01:08:55;;;;;;;1.08;1.05;;;;;;;;;;4980661;28;20381;-73
2021/11/24 01:11:21;;;;;;;0.25;0.25;;;;;;;;;;4980485;28;20089;-73
2021/11/24 01:13:48;;;;;;;0.85;0.60;;;;;;;;;;4992517;28;20498;-73
2021/11/24 01:16:14;;;;;;;2.97;1.40;;;;;;;;;;4992545;28;20034;-73
2021/11/24 01:18:40;;;;;;;0.20;0.20;;;;;;;;;;4992326;28;20400;-73
2021/11/24 01:21:06;;;;;;;0.20;0.20;;;;;;;;;;4989150;28;20027;-74
2021/11/24 01:23:32;;;;;;;0.57;0.57;;;;;;;;;;4986001;28;20049;-73
2021/11/24 01:25:58;;;;;;;9.52;2.35;;;;;;;;;;4973673;28;20026;-73
2021/11/24 01:28:24;;;;;;;0.55;0.55;;;;;;;;;;4986378;28;20401;-73
2021/11/24 01:30:50;;;;;;;1.75;1.00;;;;;;;;;;4979417;28;20754;-73
2021/11/24 01:33:16;;;;;;;0.20;0.20;;;;;;;;;;4983515;28;20222;-73
2021/11/24 01:35:42;;;;;;;3.92;0.82;;;;;;;;;;4991941;28;20164;-73
2021/11/24 01:38:08;;;;;;;1.23;1.13;;;;;;;;;;4992392;28;20037;-73
2021/11/24 01:40:34;;;;;;;0.82;0.77;;;;;;;;;;4992244;28;20030;-73
2021/11/24 01:43:00;;;;;;;0.32;0.32;;;;;;;;;;4991957;28;20030;-73
2021/11/24 01:45:27;;;;;;;0.88;0.85;;;;;;;;;;4976976;28;20030;-73
2021/11/24 01:47:53;;;;;;;2.53;1.95;;;;;;;;;;4992008;28;20038;-73
2021/11/24 01:50:19;;;;;;;1.55;1.45;;;;;;;;;;4991062;28;20469;-73
2021/11/24 01:52:46;;;;;;;0.20;0.20;;;;;;;;;;4991769;28;20109;-73
2021/11/24 01:55:12;;;;;;;0.28;0.28;;;;;;;;;;4982871;28;20031;-73
2021/11/24 01:57:43;;;;;;;4.00;0.82;;;;;;;;;;4990621;28;20041;-73
2021/11/24 02:00:09;;;;;;;0.15;0.15;;;;;;;;;;4991978;28;20485;-73
2021/11/24 02:02:35;;;;;;;0.10;0.10;;;;;;;;;;4980707;28;20108;-73
2021/11/24 02:05:01;;;;;;;0.63;0.63;;;;;;;;;;4991723;28;20404;-73
2021/11/24 02:07:27;;;;;;;0.43;0.43;;;;;;;;;;4987683;28;20052;-73
2021/11/24 02:09:53;;;;;;;0.50;0.50;;;;;;;;;;4972517;28;20039;-73
2021/11/24 02:12:19;;;;;;;0.75;0.75;;;;;;;;;;4978392;28;20026;-73
2021/11/24 02:14:45;;;;;;;3.53;0.40;;;;;;;;;;4983259;28;20022;-73
2021/11/24 02:17:13;;;;;;;0.10;0.10;;;;;;;;;;4975177;28;20038;-73
2021/11/24 02:19:39;;;;;;;0.13;0.13;;;;;;;;;;4983413;28;20034;-73
2021/11/24 02:22:05;;;;;;;0.50;0.50;;;;;;;;;;4978826;28;20620;-73
2021/11/24 02:24:32;;;;;;;0.82;0.68;;;;;;;;;;4991520;28;20514;-73
2021/11/24 02:26:59;;;;;;;0.30;0.30;;;;;;;;;;4991177;28;20084;-73
2021/11/24 02:29:25;;;;;;;2.55;1.23;;;;;;;;;;4982269;28;20037;-73
2021/11/24 02:31:53;;;;;;;0.60;0.60;;;;;;;;;;4972087;28;20035;-73
2021/11/24 02:34:18;;;;;;;0.32;0.25;;;;;;;;;;4983885;28;20030;-73
2021/11/24 02:36:44;;;;;;;0.20;0.20;;;;;;;;;;4979533;28;20030;-73
2021/11/24 02:39:11;;;;;;;2.28;0.38;;;;;;;;;;4991250;28;20110;-73
2021/11/24 02:41:37;;;;;;;0.52;0.52;;;;;;;;;;4991132;28;20050;-73
2021/11/24 02:44:20;;;;;;;0.17;0.17;;;;;;;;;;4991049;28;20050;-74
2021/11/24 02:46:46;;;;;;;0.98;0.98;;;;;;;;;;4990797;28;20401;-73
2021/11/24 02:49:12;;;;;;;0.08;0.08;;;;;;;;;;4991201;28;20102;-73
2021/11/24 02:51:38;;;;;;;0.13;0.13;;;;;;;;;;4990972;28;20034;-73
2021/11/24 02:54:05;;;;;;;0.22;0.22;;;;;;;;;;4984953;28;20376;-73
2021/11/24 02:56:31;;;;;;;0.63;0.63;;;;;;;;;;4978060;28;20029;-73
2021/11/24 02:58:57;;;;;;;0.82;0.82;;;;;;;;;;4990542;28;20232;-73
2021/11/24 03:01:23;;;;;;;0.60;0.60;;;;;;;;;;4984358;28;20486;-73
2021/11/24 03:03:49;;;;;;;0.22;0.22;;;;;;;;;;4984412;28;20030;-73
2021/11/24 03:06:15;;;;;;;9.48;2.60;;;;;;;;;;4990737;28;20057;-73
2021/11/24 03:08:41;;;;;;;0.30;0.30;;;;;;;;;;4990371;28;20049;-73
2021/11/24 03:11:06;;;;;;;0.30;0.30;;;;;;;;;;4977621;28;20146;-73
2021/11/24 03:13:33;;;;;;;0.45;0.45;;;;;;;;;;4990736;28;20106;-73
2021/11/24 03:15:58;;;;;;;0.03;0.03;;;;;;;;;;4990195;28;20034;-73
2021/11/24 03:18:24;;;;;;;1.90;1.45;;;;;;;;;;4990198;28;20444;-74
2021/11/24 03:20:50;;;;;;;1.08;0.43;;;;;;;;;;4980054;28;20030;-73
2021/11/24 03:23:16;;;;;;;0.60;0.47;;;;;;;;;;4972369;28;20061;-73
2021/11/24 03:25:42;;;;;;;0.08;0.05;;;;;;;;;;4989736;28;20543;-73
2021/11/24 03:28:08;;;;;;;0.20;0.20;;;;;;;;;;4978105;28;20031;-73
2021/11/24 03:30:35;;;;;;;0.30;0.30;;;;;;;;;;4973093;28;20026;-73
2021/11/24 03:33:02;;;;;;;0.05;0.05;;;;;;;;;;4983442;28;20026;-73
2021/11/24 03:35:28;;;;;;;0.85;0.45;;;;;;;;;;4983639;28;20035;-73
2021/11/24 03:37:54;;;;;;;0.10;0.10;;;;;;;;;;4970646;28;20039;-73
2021/11/24 03:40:24;;;;;;;0.00;0.00;;;;;;;;;;4977560;28;20038;-73
2021/11/24 03:42:51;;;;;;;0.22;0.17;;;;;;;;;;4988857;28;20023;-73
2021/11/24 03:45:18;;;;;;;0.52;0.52;;;;;;;;;;4978643;28;20030;-73
2021/11/24 03:47:45;;;;;;;0.20;0.20;;;;;;;;;;4989810;28;20026;-73
2021/11/24 03:50:11;;;;;;;0.55;0.55;;;;;;;;;;4982177;28;20118;-73
2021/11/24 03:52:37;;;;;;;1.30;0.80;;;;;;;;;;4976293;28;20054;-73
2021/11/24 03:55:04;;;;;;;0.20;0.20;;;;;;;;;;4981687;28;20437;-73
2021/11/24 03:57:31;;;;;;;0.32;0.32;;;;;;;;;;4984846;28;20054;-73
2021/11/24 03:59:57;;;;;;;0.45;0.45;;;;;;;;;;4987317;28;20062;-74
2021/11/24 04:02:23;;;;;;;0.10;0.10;;;;;;;;;;4973064;28;20525;-73
2021/11/24 04:04:49;;;;;;;5.88;0.98;;;;;;;;;;4989832;28;20114;-73
2021/11/24 04:07:15;;;;;;;1.00;0.50;;;;;;;;;;4989577;28;20050;-73
2021/11/24 04:09:41;;;;;;;0.00;0.00;;;;;;;;;;4981196;28;20400;-72
2021/11/24 04:12:07;;;;;;;0.20;0.20;;;;;;;;;;4989556;28;20037;-73
2021/11/24 04:14:33;;;;;;;0.10;0.10;;;;;;;;;;4988984;28;20026;-73
2021/11/24 04:16:59;;;;;;;0.20;0.20;;;;;;;;;;4986947;28;20033;-73
2021/11/24 04:19:25;;;;;;;0.10;0.10;;;;;;;;;;4978357;28;20022;-73
2021/11/24 04:21:51;;;;;;;0.45;0.43;;;;;;;;;;4989323;28;20396;-73
2021/11/24 04:24:18;;;;;;;0.20;0.20;;;;;;;;;;4983887;28;20442;-73
2021/11/24 04:26:44;;;;;;;0.05;0.05;;;;;;;;;;4984558;28;20026;-73
2021/11/24 04:29:10;;;;;;;0.95;0.80;;;;;;;;;;4979885;28;20122;-73
2021/11/24 04:31:36;;;;;;;1.30;0.55;;;;;;;;;;4969300;28;20022;-73
2021/11/24 04:34:02;;;;;;;0.08;0.08;;;;;;;;;;4974244;28;20042;-73
2021/11/24 04:36:28;;;;;;;0.17;0.17;;;;;;;;;;4984581;28;20038;-73
2021/11/24 04:38:53;;;;;;;0.00;0.00;;;;;;;;;;4975354;28;20081;-74
2021/11/24 04:41:20;;;;;;;0.13;0.13;;;;;;;;;;4976532;28;20892;-73
2021/11/24 04:43:47;;;;;;;1.13;0.88;;;;;;;;;;4977582;28;20034;-73
2021/11/24 04:46:15;;;;;;;0.10;0.10;;;;;;;;;;4986499;28;20023;-73
2021/11/24 04:48:42;;;;;;;0.03;0.03;;;;;;;;;;4988873;28;20080;-73
2021/11/24 04:51:07;;;;;;;0.35;0.35;;;;;;;;;;4980818;28;20031;-73
2021/11/24 04:53:33;;;;;;;0.00;0.00;;;;;;;;;;4974365;28;20035;-73
2021/11/24 04:56:00;;;;;;;0.40;0.32;;;;;;;;;;4974193;28;20041;-74
2021/11/24 04:58:26;;;;;;;0.20;0.20;;;;;;;;;;4989057;28;20101;-73
2021/11/24 05:00:51;;;;;;;1.23;1.13;;;;;;;;;;4973994;28;20134;-73
2021/11/24 05:03:17;;;;;;;0.85;0.30;;;;;;;;;;4977596;28;20137;-73
2021/11/24 05:05:43;;;;;;;0.08;0.08;;;;;;;;;;4980807;28;20034;-73
2021/11/24 05:08:09;;;;;;;0.20;0.20;;;;;;;;;;4972018;28;20666;-73
2021/11/24 05:10:35;;;;;;;0.00;0.00;;;;;;;;;;4977410;28;20050;-73
2021/11/24 05:13:01;;;;;;;0.10;0.10;;;;;;;;;;4971269;28;20026;-73
2021/11/24 05:15:32;;;;;;;0.10;0.10;;;;;;;;;;4971603;28;20068;-73
2021/11/24 05:18:04;;;;;;;2.05;1.45;;;;;;;;;;4980704;28;20039;-73
2021/11/24 05:20:32;;;;;;;0.08;0.05;;;;;;;;;;4980619;28;20047;-73
2021/11/24 05:23:00;;;;;;;0.38;0.38;;;;;;;;;;4971569;28;20049;-73
2021/11/24 05:25:26;;;;;;;0.70;0.70;;;;;;;;;;4985521;28;20031;-73
2021/11/24 05:27:52;;;;;;;0.20;0.20;;;;;;;;;;4989940;28;20026;-73
2021/11/24 05:30:18;;;;;;;0.13;0.13;;;;;;;;;;4981409;28;20045;-73
2021/11/24 05:32:44;;;;;;;0.30;0.30;;;;;;;;;;4984291;28;20448;-73
2021/11/24 05:35:10;;;;;;;0.10;0.10;;;;;;;;;;4983404;28;20046;-73
2021/11/24 05:37:36;;;;;;;0.45;0.45;;;;;;;;;;4972278;28;20038;-73
2021/11/24 05:40:03;;;;;;;0.10;0.10;;;;;;;;;;4987592;28;20503;-73
2021/11/24 05:42:29;;;;;;;0.03;0.03;;;;;;;;;;4979085;28;20445;-73
2021/11/24 05:45:03;;;;;;;0.40;0.40;;;;;;;;;;4984490;28;20030;-73
2021/11/24 05:50:15;;;;;;;0.00;0.00;;;;;;;;;;4977718;28;20118;-73
2021/11/24 05:52:41;;;;;;;1.23;0.60;;;;;;;;;;4983697;28;20117;-73
2021/11/24 05:55:07;;;;;;;0.47;0.47;;;;;;;;;;4975604;28;20038;-73
2021/11/24 05:57:33;;;;;;;0.20;0.20;;;;;;;;;;4979518;28;20043;-73
2021/11/24 05:59:59;;;;;;;0.10;0.10;;;;;;;;;;4971911;28;20109;-74
2021/11/24 06:02:24;;;;;;;0.43;0.43;;;;;;;;;;4971957;28;20027;-72
2021/11/24 06:04:50;;;;;;;0.70;0.70;;;;;;;;;;4980780;28;20030;-73
2021/11/24 06:07:16;;;;;;;0.75;0.65;;;;;;;;;;4974367;28;20023;-73
2021/11/24 06:09:42;;;;;;;0.20;0.20;;;;;;;;;;4980022;28;20042;-73
2021/11/24 06:12:08;;;;;;;0.10;0.10;;;;;;;;;;4979320;28;20061;-73
2021/11/24 06:14:34;;;;;;;1.42;1.13;;;;;;;;;;4981881;28;20477;-73
2021/11/24 06:17:00;;;;;;;0.30;0.30;;;;;;;;;;4977644;28;20037;-74
2021/11/24 06:19:26;;;;;;;0.20;0.20;;;;;;;;;;4977344;28;20109;-76
2021/11/24 06:21:52;;;;;;;0.32;0.32;;;;;;;;;;4973143;28;20042;-73
2021/11/24 06:24:17;;;;;;;0.10;0.10;;;;;;;;;;4972935;28;20081;-73
2021/11/24 06:26:43;;;;;;;5.68;1.10;;;;;;;;;;4972596;28;20389;-73
2021/11/24 06:29:09;;;;;;;0.10;0.10;;;;;;;;;;4974682;28;20161;-73
2021/11/24 06:31:35;;;;;;;0.30;0.28;;;;;;;;;;4976379;28;20405;-74
2021/11/24 06:34:17;;;;;;;0.32;0.32;;;;;;;;;;4981173;28;20036;-71
2021/11/24 06:36:43;;;;;;;0.32;0.32;;;;;;;;;;4971569;28;20030;-73
2021/11/24 06:39:09;;;;;;;2.05;0.22;;;;;;;;;;4981535;28;20441;-74
2021/11/24 06:41:35;;;;;;;0.00;0.00;;;;;;;;;;4977493;28;20085;-73
2021/11/24 06:44:01;;;;;;;3.03;0.93;;;;;;;;;;4977640;28;20027;-73
2021/11/24 06:46:28;;;;;;;0.68;0.68;;;;;;;;;;4980858;28;20473;-73
2021/11/24 06:48:54;;;;;;;0.10;0.10;;;;;;;;;;4974684;28;20397;-71
2021/11/24 06:51:20;;;;;;;0.15;0.15;;;;;;;;;;4974784;28;20030;-70
2021/11/24 06:53:46;;;;;;;1.05;0.85;;;;;;;;;;4976917;28;20366;-72
2021/11/24 06:56:12;;;;;;;0.20;0.20;;;;;;;;;;4971027;28;20146;-72
2021/11/24 06:58:38;;;;;;;0.50;0.50;;;;;;;;;;4981671;28;20385;-72
2021/11/24 07:01:04;;;;;;;1.50;1.40;;;;;;;;;;4986601;28;20080;-72
2021/11/24 07:03:30;;;;;;;0.13;0.13;;;;;;;;;;4981688;28;20481;-73
2021/11/24 07:05:56;;;;;;;0.98;0.85;;;;;;;;;;4990046;28;20034;-73
2021/11/24 07:08:22;;;;;;;0.45;0.40;;;;;;;;;;4987156;28;20101;-72
2021/11/24 07:10:48;;;;;;;0.30;0.30;;;;;;;;;;4980075;28;20125;-72
2021/11/24 07:13:14;;;;;;;1.08;0.45;;;;;;;;;;4985776;28;20035;-72
2021/11/24 07:15:40;;;;;;;1.40;0.73;;;;;;;;;;4988223;28;20042;-72
2021/11/24 07:18:06;;;;;;;0.90;0.90;;;;;;;;;;4982849;28;20482;-72
2021/11/24 07:20:32;;;;;;;0.50;0.50;;;;;;;;;;4976171;28;20053;-72
2021/11/24 07:22:59;;;;;;;1.17;0.60;;;;;;;;;;4975294;28;20549;-72
2021/11/24 07:25:25;;;;;;;0.43;0.43;;;;;;;;;;4978403;28;20022;-72
2021/11/24 07:27:51;;;;;;;0.60;0.60;;;;;;;;;;4978959;28;20026;-72
2021/11/24 07:30:19;;;;;;;0.20;0.20;;;;;;;;;;4975814;28;20026;-72
2021/11/24 07:32:45;;;;;;;0.52;0.52;;;;;;;;;;4979161;28;20065;-72
2021/11/24 07:35:11;;;;;;;0.47;0.47;;;;;;;;;;4987836;28;20023;-71
2021/11/24 07:37:37;;;;;;;0.90;0.90;;;;;;;;;;4975582;28;20041;-73
2021/11/24 07:40:04;;;;;;;0.00;0.00;;;;;;;;;;4988266;28;20033;-71
2021/11/24 07:42:30;;;;;;;0.32;0.32;;;;;;;;;;4975613;28;20031;-72
2021/11/24 07:44:56;;;;;;;0.50;0.50;;;;;;;;;;4973713;28;20497;-70
2021/11/24 07:47:22;;;;;;;2.20;1.08;;;;;;;;;;4978848;28;20050;-70
2021/11/24 07:49:48;;;;;;;0.15;0.15;;;;;;;;;;4985038;28;20041;-70
2021/11/24 07:52:14;;;;;;;0.20;0.20;;;;;;;;;;4989594;28;20026;-70
2021/11/24 07:54:40;;;;;;;0.45;0.45;;;;;;;;;;4977737;28;20058;-70
2021/11/24 07:57:06;;;;;;;0.40;0.40;;;;;;;;;;4989694;28;20022;-70
2021/11/24 07:59:32;;;;;;;7.22;1.27;;;;;;;;;;4972957;28;20026;-70
2021/11/24 08:01:58;;;;;;;1.95;1.50;;;;;;;;;;4970029;28;20349;-70
2021/11/24 08:04:24;;;;;;;0.70;0.70;;;;;;;;;;4981244;28;20469;-70
2021/11/24 08:06:50;;;;;;;0.50;0.50;;;;;;;;;;4981955;28;20030;-71
2021/11/24 08:09:15;;;;;;;0.52;0.52;;;;;;;;;;4979375;28;20033;-72
2021/11/24 08:11:41;;;;;;;0.20;0.20;;;;;;;;;;4974143;28;20054;-70
2021/11/24 08:14:07;;;;;;;6.93;1.30;;;;;;;;;;4986171;28;20038;-70
2021/11/24 08:16:33;;;;;;;0.73;0.73;;;;;;;;;;4973814;28;20107;-71
2021/11/24 08:18:59;;;;;;;0.25;0.25;;;;;;;;;;4976696;28;20030;-70
2021/11/24 08:21:25;;;;;;;0.47;0.47;;;;;;;;;;4978781;28;20035;-71
2021/11/24 08:23:51;;;;;;;0.35;0.35;;;;;;;;;;4981162;28;20150;-70
2021/11/24 08:26:18;;;;;;;5.65;1.58;;;;;;;;;;4980091;28;20109;-70
2021/11/24 08:28:44;;;;;;;0.22;0.22;;;;;;;;;;4979387;28;20110;-70
2021/11/24 08:31:09;;;;;;;0.28;0.28;;;;;;;;;;4980424;28;20118;-71
2021/11/24 08:33:35;;;;;;;0.57;0.57;;;;;;;;;;4971220;28;20025;-70
2021/11/24 08:36:01;;;;;;;2.95;0.95;;;;;;;;;;4980620;28;20030;-71
2021/11/24 08:38:27;;;;;;;0.40;0.40;;;;;;;;;;4979323;28;20031;-70
2021/11/24 08:40:53;;;;;;;0.75;0.75;;;;;;;;;;4980563;28;20058;-70
2021/11/24 08:43:20;;;;;;;0.20;0.20;;;;;;;;;;4983127;28;20064;-71
2021/11/24 08:45:46;;;;;;;0.38;0.38;;;;;;;;;;4980931;28;20022;-71
2021/11/24 08:48:12;;;;;;;1.58;1.48;;;;;;;;;;4983997;28;20166;-71
2021/11/24 08:50:38;;;;;;;0.40;0.40;;;;;;;;;;4980916;28;20030;-71
2021/11/24 08:53:04;;;;;;;0.52;0.52;;;;;;;;;;4985917;28;20109;-71
2021/11/24 08:55:30;;;;;;;0.30;0.30;;;;;;;;;;4978784;28;20061;-76
2021/11/24 08:57:57;;;;;;;0.25;0.25;;;;;;;;;;4979949;28;20409;-71
2021/11/24 09:00:23;;;;;;;0.80;0.75;;;;;;;;;;4981540;28;20026;-72
2021/11/24 09:02:50;;;;;;;0.30;0.30;;;;;;;;;;4978705;28;20080;-70
2021/11/24 09:05:17;;;;;;;0.30;0.30;;;;;;;;;;4981732;28;20166;-70
2021/11/24 09:07:43;;;;;;;0.50;0.50;;;;;;;;;;4972857;28;20030;-70
2021/11/24 09:10:09;;;;;;;2.08;1.02;;;;;;;;;;4983986;28;20374;-70
2021/11/24 09:12:35;;;;;;;0.65;0.65;;;;;;;;;;4978288;28;20034;-70
2021/11/24 09:15:01;;;;;;;1.10;0.98;;;;;;;;;;4976632;28;20050;-70
2021/11/24 09:17:27;;;;;;;1.10;0.85;;;;;;;;;;4990178;28;20240;-70
2021/11/24 09:19:53;;;;;;;0.65;0.60;;;;;;;;;;4979716;28;20473;-70
2021/11/24 09:22:19;;;;;;;0.32;0.32;;;;;;;;;;4991053;28;20093;-70
2021/11/24 09:24:45;;;;;;;1.02;0.80;;;;;;;;;;4975138;28;20050;-71
2021/11/24 09:27:16;;;;;;;2.45;1.55;;;;;;;;;;4976211;28;20030;-70
2021/11/24 09:29:42;;;;;;;3.00;0.88;;;;;;;;;;4976726;28;20122;-70
2021/11/24 09:32:08;;;;;;;0.40;0.30;;;;;;;;;;4976850;28;20475;-70
2021/11/24 09:34:34;;;;;;;0.80;0.45;;;;;;;;;;4975013;28;20029;-70
2021/11/24 09:37:00;;;;;;;0.20;0.15;;;;;;;;;;4967786;28;20026;-70
2021/11/24 09:39:26;;;;;;;0.88;0.65;;;;;;;;;;4983819;28;20437;-70
2021/11/24 09:41:52;;;;;;;0.10;0.10;;;;;;;;;;4980504;28;20500;-70
2021/11/24 09:44:19;;;;;;;0.00;0.00;;;;;;;;;;4987627;28;20027;-69
2021/11/24 09:46:45;;;;;;;2.65;1.42;;;;;;;;;;4975567;28;20026;-70
2021/11/24 09:49:12;;;;;;;0.25;0.25;;;;;;;;;;4980044;28;20015;-70
2021/11/24 09:51:39;;;;;;;0.20;0.20;;;;;;;;;;4984505;28;20042;-70
2021/11/24 09:54:05;;;;;;;0.08;0.08;;;;;;;;;;4986598;28;20074;-70
2021/11/24 09:56:31;;;;;;;0.35;0.35;;;;;;;;;;4978548;28;20062;-69
2021/11/24 09:58:57;;;;;;;1.80;0.98;;;;;;;;;;4980757;28;20066;-72
2021/11/24 10:01:24;;;;;;;0.28;0.28;;;;;;;;;;4971001;28;20035;-70
2021/11/24 10:03:50;;;;;;;0.20;0.20;;;;;;;;;;4974360;28;20031;-72
2021/11/24 10:06:16;;;;;;;1.33;0.80;;;;;;;;;;4978075;28;20023;-70
2021/11/24 10:08:42;;;;;;;0.40;0.40;;;;;;;;;;4971535;28;20023;-71
2021/11/24 10:11:08;;;;;;;0.20;0.20;;;;;;;;;;4990537;28;20049;-71
2021/11/24 10:13:34;;;;;;;0.25;0.25;;;;;;;;;;4982656;28;20061;-70
2021/11/24 10:16:01;;;;;;;0.73;0.68;;;;;;;;;;4979816;28;20110;-70
2021/11/24 10:18:35;;;;;;;0.70;0.38;;;;;;;;;;4983707;28;20026;-71
2021/11/24 10:21:15;;;;;;;2.50;0.85;;;;;;;;;;4965952;28;20446;-70
2021/11/24 10:23:42;;;;;;;0.50;0.50;;;;;;;;;;4984224;28;20039;-70
2021/11/24 10:26:27;;;;;;;0.77;0.45;;;;;;;;;;4972671;28;20041;-71
2021/11/24 10:28:59;;;;;;;7.70;1.25;;;;;;;;;;4979055;28;20026;-71
2021/11/24 10:31:29;;;;;;;0.10;0.10;;;;;;;;;;4977681;28;20019;-72
2021/11/24 10:33:56;;;;;;;3.20;0.87;;;;;;;;;;4967910;28;20029;-77
2021/11/24 10:36:23;;;;;;;0.52;0.52;;;;;;;;;;4983413;28;20093;-71
2021/11/24 10:38:51;;;;;;;1.85;0.90;;;;;;;;;;4972654;28;20507;-70
2021/11/24 10:41:28;;;;;;;0.73;0.73;;;;;;;;;;4975423;28;20042;-70
2021/11/24 10:43:54;;;;;;;0.80;0.45;;;;;;;;;;4976671;28;20041;-71
2021/11/24 10:46:23;;;;;;;0.30;0.30;;;;;;;;;;4978918;28;20027;-69
2021/11/24 10:48:58;;;;;;;0.80;0.80;;;;;;;;;;4972551;28;20059;-70
2021/11/24 10:51:32;;;;;;;0.55;0.55;;;;;;;;;;4975239;28;20030;-70
2021/11/24 10:54:24;;;;;;;0.43;0.43;;;;;;;;;;4971282;28;20113;-71
2021/11/24 10:57:06;;;;;;;0.75;0.70;;;;;;;;;;4968152;28;20046;-70
2021/11/24 10:59:35;;;;;;;0.35;0.35;;;;;;;;;;4974876;28;20034;-70
2021/11/24 11:02:19;;;;;;;0.13;0.13;;;;;;;;;;4970592;28;20561;-71
2021/11/24 11:04:55;;;;;;;0.88;0.88;;;;;;;;;;4977914;28;20034;-71
2021/11/24 11:07:21;;;;;;;0.88;0.88;;;;;;;;;;4975546;28;20027;-71
2021/11/24 11:09:47;;;;;;;0.47;0.47;;;;;;;;;;4970344;28;20042;-70
2021/11/24 11:12:13;;;;;;;1.65;0.82;;;;;;;;;;4973418;28;20085;-71
2021/11/24 11:14:39;;;;;;;0.93;0.90;;;;;;;;;;4980850;28;20088;-71
2021/11/24 11:17:04;;;;;;;0.17;0.17;;;;;;;;;;4988224;28;20544;-70
2021/11/24 11:19:49;;;;;;;0.45;0.45;;;;;;;;;;4977492;28;20066;-70
2021/11/24 11:22:16;;;;;;;0.52;0.52;;;;;;;;;;4977166;28;20109;-71
2021/11/24 11:24:42;;;;;;;0.90;0.90;;;;;;;;;;4972261;28;20023;-72
2021/11/24 11:27:09;;;;;;;0.73;0.73;;;;;;;;;;4976029;28;20033;-72
2021/11/24 11:29:36;;;;;;;0.05;0.05;;;;;;;;;;4975317;28;20057;-72
2021/11/24 11:32:03;;;;;;;3.70;0.68;;;;;;;;;;4975004;28;20030;-72
2021/11/24 11:34:30;;;;;;;0.00;0.00;;;;;;;;;;4975811;28;20524;-72
2021/11/24 11:36:57;;;;;;;0.40;0.40;;;;;;;;;;4975585;28;20034;-72
2021/11/24 11:39:24;;;;;;;0.35;0.35;;;;;;;;;;4969751;28;20093;-71
2021/11/24 11:41:50;;;;;;;0.10;0.10;;;;;;;;;;4977200;28;20072;-72
2021/11/24 11:44:18;;;;;;;0.75;0.75;;;;;;;;;;4990037;28;20061;-72
2021/11/24 11:46:50;;;;;;;0.80;0.80;;;;;;;;;;4984642;28;20031;-71
2021/11/24 11:49:16;;;;;;;;;;;;;;;;;;4975478;28;20077;-71
2021/11/24 11:51:42;;;;;;;0.98;0.95;;;;;;;;;;4969597;28;20549;-71
2021/11/24 11:54:10;;;;;;;1.65;0.60;;;;;;;;;;4969817;28;20031;-71
2021/11/24 11:56:38;;;;;;;0.05;0.05;;;;;;;;;;4971260;28;20019;-73
2021/11/24 11:59:04;;;;;;;0.32;0.32;;;;;;;;;;4971238;28;20421;-72
2021/11/24 12:01:34;;;;;;;0.10;0.10;;;;;;;;;;4972752;28;20022;-72
2021/11/24 12:04:00;;;;;;;0.43;0.43;;;;;;;;;;4970852;28;20501;-72
2021/11/24 12:06:34;;;;;;;0.80;0.63;;;;;;;;;;4970668;28;20038;-72
2021/11/24 12:09:06;;;;;;;0.52;0.52;;;;;;;;;;4971052;28;20026;-72
2021/11/24 12:11:51;;;;;;;0.17;0.17;;;;;;;;;;4970610;28;20042;-72
2021/11/24 12:14:35;;;;;;;0.03;0.03;;;;;;;;;;4973962;28;20081;-72
2021/11/24 12:17:21;;;;;;;0.38;0.38;;;;;;;;;;4973922;28;20101;-73
2021/11/24 12:19:47;;;;;;;0.20;0.20;;;;;;;;;;4970401;28;20027;-72
2021/11/24 12:22:13;;;;;;;0.55;0.55;;;;;;;;;;4970803;28;20041;-72
2021/11/24 12:24:40;;;;;;;3.97;1.65;;;;;;;;;;4973766;28;20097;-72
2021/11/24 12:27:06;;;;;;;0.22;0.22;;;;;;;;;;4975531;28;20113;-72
2021/11/24 12:29:48;;;;;;;0.80;0.57;;;;;;;;;;4972133;28;20125;-73
2021/11/24 12:32:16;;;;;;;0.47;0.47;;;;;;;;;;4971440;28;20489;-72
2021/11/24 12:34:51;;;;;;;0.20;0.20;;;;;;;;;;4971109;28;20022;-72
2021/11/24 12:37:21;;;;;;;0.05;0.05;;;;;;;;;;4974284;28;20311;-73
2021/11/24 12:39:47;;;;;;;2.83;0.43;;;;;;;;;;4975246;28;20030;-72
2021/11/24 12:42:13;;;;;;;0.10;0.10;;;;;;;;;;4971400;28;20077;-72
2021/11/24 12:44:50;;;;;;;0.52;0.52;;;;;;;;;;4971637;28;20057;-72
2021/11/24 12:47:16;;;;;;;0.20;0.20;;;;;;;;;;4969162;28;20019;-71
2021/11/24 12:49:42;;;;;;;0.65;0.65;;;;;;;;;;4976762;28;20028;-72
2021/11/24 12:52:08;;;;;;;0.20;0.20;;;;;;;;;;4971172;28;20041;-72
2021/11/24 12:54:34;;;;;;;0.10;0.10;;;;;;;;;;4972667;28;20039;-72
2021/11/24 12:57:06;;;;;;;1.75;0.35;;;;;;;;;;4969573;28;20054;-71
2021/11/24 12:59:36;;;;;;;0.85;0.60;;;;;;;;;;4973010;28;20030;-73
2021/11/24 13:02:09;;;;;;;0.25;0.25;;;;;;;;;;4969548;28;20031;-72
2021/11/24 13:04:36;;;;;;;0.30;0.30;;;;;;;;;;4974112;28;20500;-73
2021/11/24 13:07:03;;;;;;;0.13;0.13;;;;;;;;;;4969012;28;20054;-72
2021/11/24 13:09:31;;;;;;;0.45;0.45;;;;;;;;;;4969267;28;20536;-72
2021/11/24 13:11:56;;;;;;;0.30;0.30;;;;;;;;;;4974098;28;20370;-72
2021/11/24 13:14:27;;;;;;;1.42;1.33;;;;;;;;;;4972976;28;20181;-73
2021/11/24 13:17:00;;;;;;;4.65;1.73;;;;;;;;;;4967361;28;20018;-73
2021/11/24 13:19:45;;;;;;;0.15;0.15;;;;;;;;;;4970142;28;20482;-72
2021/11/24 13:22:12;;;;;;;0.30;0.30;;;;;;;;;;4969653;28;20118;-72
2021/11/24 13:24:39;;;;;;;0.38;0.38;;;;;;;;;;4972693;28;20026;-72
2021/11/24 13:27:06;;;;;;;0.03;0.03;;;;;;;;;;4972083;28;20096;-72
2021/11/24 13:29:34;;;;;;;1.45;1.20;;;;;;;;;;4970262;28;20023;-73
2021/11/24 13:32:07;;;;;;;0.10;0.10;;;;;;;;;;4971322;28;20035;-72
2021/11/24 13:34:33;;;;;;;2.55;0.73;;;;;;;;;;4969511;28;20046;-73
2021/11/24 13:36:59;;;;;;;0.52;0.52;;;;;;;;;;4976247;28;20023;-73
2021/11/24 13:39:26;;;;;;;0.63;0.63;;;;;;;;;;4974323;28;20035;-72
2021/11/24 13:41:52;;;;;;;0.65;0.65;;;;;;;;;;4971515;28;20073;-72
2021/11/24 13:44:18;;;;;;;0.57;0.55;;;;;;;;;;4968441;28;20517;-72
2021/11/24 13:46:49;;;;;;;0.73;0.73;;;;;;;;;;4970627;28;20061;-74
2021/11/24 13:49:18;;;;;;;0.28;0.28;;;;;;;;;;4976699;28;20113;-74
2021/11/24 13:51:45;;;;;;;0.88;0.57;;;;;;;;;;4973070;28;20117;-72
2021/11/24 13:54:13;;;;;;;0.52;0.52;;;;;;;;;;4973909;28;20027;-73
2021/11/24 13:56:46;;;;;;;2.83;0.47;;;;;;;;;;4980548;28;20110;-73
2021/11/24 13:59:12;;;;;;;0.73;0.68;;;;;;;;;;4992033;28;20072;-72
2021/11/24 14:01:46;;;;;;;0.10;0.10;;;;;;;;;;4983325;28;20027;-72
2021/11/24 14:04:17;;;;;;;0.10;0.10;;;;;;;;;;4980484;28;20795;-73
2021/11/24 14:06:53;;;;;;;0.00;0.00;;;;;;;;;;4992008;28;20026;-73
2021/11/24 14:09:26;;;;;;;1.02;0.57;;;;;;;;;;4991632;28;20030;-73
2021/11/24 14:11:52;;;;;;;0.10;0.10;;;;;;;;;;4988870;28;20037;-73
2021/11/24 14:14:18;;;;;;;0.17;0.17;;;;;;;;;;4977938;28;20034;-73
2021/11/24 14:16:51;;;;;;;1.05;0.77;;;;;;;;;;4983186;28;20019;-73
2021/11/24 14:19:17;;;;;;;0.98;0.70;;;;;;;;;;4978011;28;20037;-73
2021/11/24 14:21:53;;;;;;;0.43;0.43;;;;;;;;;;4978153;28;20537;-73
2021/11/24 14:24:20;;;;;;;0.38;0.38;;;;;;;;;;4977013;28;20509;-73
2021/11/24 14:26:46;;;;;;;0.35;0.35;;;;;;;;;;4983115;28;20031;-73
2021/11/24 14:29:13;;;;;;;0.70;0.70;;;;;;;;;;4977623;28;20045;-73
2021/11/24 14:31:39;;;;;;;0.20;0.20;;;;;;;;;;4972734;28;20070;-72
2021/11/24 14:34:05;;;;;;;0.75;0.30;;;;;;;;;;4973624;28;20031;-73
2021/11/24 14:36:31;;;;;;;1.38;0.50;;;;;;;;;;4972183;28;20027;-72
2021/11/24 14:38:57;;;;;;;0.57;0.57;;;;;;;;;;4971090;28;20030;-72
2021/11/24 14:41:23;;;;;;;1.50;1.10;;;;;;;;;;4971695;28;20049;-72
2021/11/24 14:43:51;;;;;;;0.20;0.20;;;;;;;;;;4976972;28;20477;-72
2021/11/24 14:46:17;;;;;;;0.28;0.28;;;;;;;;;;4978062;28;20038;-72